Time;durP1;ratioP1;P1;durP2;ratioP2;P2;SDS_P1;SDS_P2;PMS_P1;PMS_P2;Temp;Humidity;BMP_temperature;BMP_pressure;BME280_temperature;BME280_humidity;BME280_pressure;Samples;Min_cycle;Max_cycle;Signal;HPM_P1;HPM_P2
2022/09/06 04:01:24;;;;;;;2.17;1.38;;;20.20;99.90;;;;;;2612811;47;20427;-62
2022/09/06 04:14:58;;;;;;;2.35;1.40;;;21.80;99.90;;;;;;2620343;39;20816;-65
2022/09/06 04:17:31;;;;;;;1.88;1.52;;;20.60;99.90;;;;;;2614569;54;20168;-64
2022/09/06 04:20:01;;;;;;;1.48;1.35;;;20.50;99.90;;;;;;2614412;54;20144;-67
2022/09/06 04:22:30;;;;;;;2.30;1.08;;;20.40;99.90;;;;;;2614805;54;20137;-64
2022/09/06 04:25:00;;;;;;;2.72;1.33;;;20.40;99.90;;;;;;2615346;54;20140;-64
2022/09/06 04:27:30;;;;;;;1.65;1.20;;;20.30;99.90;;;;;;2614368;54;20172;-64
2022/09/06 04:29:59;;;;;;;2.50;1.67;;;20.30;99.90;;;;;;2614228;47;20145;-66
2022/09/06 04:32:32;;;;;;;3.15;1.52;;;20.30;99.90;;;;;;2615494;54;20715;-65
2022/09/06 04:35:01;;;;;;;2.55;1.80;;;20.20;99.90;;;;;;2615365;54;20143;-64
2022/09/06 04:37:31;;;;;;;3.45;1.85;;;20.20;99.90;;;;;;2615225;54;20699;-64
2022/09/06 04:40:01;;;;;;;2.78;1.80;;;20.20;99.90;;;;;;2615776;47;20137;-64
2022/09/06 04:42:31;;;;;;;3.85;1.80;;;20.20;99.90;;;;;;2615571;54;20220;-64
2022/09/06 04:45:01;;;;;;;1.83;1.65;;;20.20;99.90;;;;;;2614379;54;20151;-67
2022/09/06 04:47:33;;;;;;;2.35;1.95;;;20.20;99.90;;;;;;2615775;47;20175;-64
2022/09/06 04:50:03;;;;;;;2.33;2.10;;;20.10;99.90;;;;;;2615153;54;20137;-64
2022/09/06 04:52:33;;;;;;;5.65;2.15;;;20.10;99.90;;;;;;2614222;54;20153;-65
2022/09/06 04:55:02;;;;;;;2.58;2.00;;;20.00;99.90;;;;;;2614150;47;20137;-64
2022/09/06 04:57:32;;;;;;;4.35;2.20;;;20.00;99.90;;;;;;2612654;54;20976;-64
2022/09/06 05:00:02;;;;;;;3.90;2.00;;;20.00;99.90;;;;;;2615233;54;20141;-64
2022/09/06 05:02:34;;;;;;;3.08;1.90;;;20.00;99.90;;;;;;2614140;47;20144;-63
2022/09/06 05:05:04;;;;;;;3.97;2.00;;;19.90;99.90;;;;;;2615531;54;20692;-64
2022/09/06 05:07:34;;;;;;;3.78;2.30;;;19.90;99.90;;;;;;2615138;47;20199;-64
2022/09/06 05:10:04;;;;;;;4.72;2.10;;;19.80;99.90;;;;;;2620135;54;20189;-63
2022/09/06 05:12:34;;;;;;;3.15;2.50;;;19.70;99.90;;;;;;2617119;47;20137;-63
2022/09/06 05:15:04;;;;;;;3.33;2.65;;;19.70;99.90;;;;;;2615442;54;20137;-64
2022/09/06 05:17:37;;;;;;;3.53;2.35;;;19.80;99.90;;;;;;2613782;54;20191;-63
2022/09/06 05:20:07;;;;;;;2.80;2.25;;;19.70;99.90;;;;;;2615927;54;20661;-63
2022/09/06 05:22:37;;;;;;;3.92;2.25;;;19.70;99.90;;;;;;2613923;47;20144;-63
2022/09/06 05:25:07;;;;;;;2.83;2.05;;;19.70;99.90;;;;;;2615050;54;20160;-63
2022/09/06 05:27:37;;;;;;;3.53;2.05;;;19.60;99.90;;;;;;2614347;54;20176;-63
2022/09/06 05:30:08;;;;;;;2.55;2.05;;;19.60;99.90;;;;;;2614743;54;20145;-63
2022/09/06 05:32:41;;;;;;;2.92;2.05;;;19.60;99.90;;;;;;2615420;54;20152;-63
2022/09/06 05:35:11;;;;;;;4.03;1.92;;;19.50;99.90;;;;;;2614326;54;20685;-64
2022/09/06 05:37:40;;;;;;;4.50;1.90;;;19.60;99.90;;;;;;2614261;39;20618;-64
2022/09/06 05:40:11;;;;;;;5.68;2.10;;;19.60;99.90;;;;;;2615126;47;20160;-63
2022/09/06 05:42:41;;;;;;;4.43;1.98;;;19.60;99.90;;;;;;2615631;54;20141;-63
2022/09/06 05:45:11;;;;;;;3.50;2.13;;;19.60;99.90;;;;;;2615773;47;20149;-63
2022/09/06 05:47:44;;;;;;;3.90;2.20;;;19.60;99.90;;;;;;2615340;54;20246;-64
2022/09/06 05:50:13;;;;;;;3.58;2.30;;;19.70;99.90;;;;;;2615635;47;20685;-61
2022/09/06 05:52:43;;;;;;;3.03;2.47;;;19.70;99.90;;;;;;2617363;54;20145;-62
2022/09/06 05:55:13;;;;;;;3.63;2.40;;;19.80;99.90;;;;;;2617476;54;20137;-62
2022/09/06 05:57:43;;;;;;;3.60;2.10;;;19.80;99.90;;;;;;2616890;54;20167;-63
2022/09/06 06:00:14;;;;;;;5.65;2.10;;;19.80;99.90;;;;;;2615739;54;20137;-63
2022/09/06 06:02:48;;;;;;;4.20;2.00;;;19.90;99.90;;;;;;2615562;51;20151;-63
2022/09/06 06:05:19;;;;;;;2.10;1.88;;;19.90;99.90;;;;;;2615799;47;20136;-62
2022/09/06 06:07:48;;;;;;;2.50;2.00;;;19.90;99.90;;;;;;2618042;47;20169;-63
2022/09/06 06:10:18;;;;;;;3.13;2.00;;;20.00;99.90;;;;;;2616243;46;20155;-63
2022/09/06 06:12:48;;;;;;;6.15;1.88;;;20.00;99.90;;;;;;2616013;47;20230;-63
2022/09/06 06:15:18;;;;;;;11.10;2.15;;;20.10;99.90;;;;;;2616520;54;21015;-63
2022/09/06 06:17:50;;;;;;;5.15;2.28;;;20.20;99.90;;;;;;2617559;54;20176;-68
2022/09/06 06:20:20;;;;;;;4.20;1.83;;;20.20;99.90;;;;;;2620512;54;20137;-62
2022/09/06 06:22:50;;;;;;;3.63;1.63;;;20.20;99.90;;;;;;2619864;54;20137;-63
2022/09/06 06:25:24;;;;;;;4.70;1.95;;;20.30;99.90;;;;;;2616941;54;20144;-64
2022/09/06 06:27:54;;;;;;;9.40;2.10;;;20.40;99.90;;;;;;2613980;54;20175;-65
2022/09/06 06:30:24;;;;;;;3.22;2.03;;;20.40;99.90;;;;;;2614296;54;20144;-63
2022/09/06 06:32:57;;;;;;;8.73;2.17;;;20.50;99.90;;;;;;2615140;54;20137;-62
2022/09/06 06:35:27;;;;;;;3.67;1.92;;;20.60;99.90;;;;;;2615707;54;20137;-64
2022/09/06 06:37:57;;;;;;;3.83;1.80;;;20.60;99.90;;;;;;2617260;54;20161;-63
2022/09/06 06:40:27;;;;;;;2.78;2.20;;;20.70;99.90;;;;;;2616910;54;20144;-63
2022/09/06 06:42:57;;;;;;;2.90;1.90;;;20.70;99.90;;;;;;2615959;54;20145;-64
2022/09/06 06:45:27;;;;;;;5.10;2.10;;;20.80;99.90;;;;;;2615458;54;20148;-66
2022/09/06 06:48:00;;;;;;;6.32;2.13;;;20.90;99.90;;;;;;2614607;54;20176;-65
2022/09/06 06:50:29;;;;;;;3.47;2.05;;;20.90;99.90;;;;;;2613897;54;20145;-65
2022/09/06 06:52:59;;;;;;;3.20;1.73;;;21.00;99.90;;;;;;2612752;54;20145;-64
2022/09/06 06:55:29;;;;;;;4.80;2.00;;;21.00;99.90;;;;;;2612614;53;20153;-64
2022/09/06 06:58:01;;;;;;;5.13;2.10;;;21.00;99.90;;;;;;2614827;39;20608;-64
2022/09/06 07:00:31;;;;;;;4.93;1.83;;;21.10;99.90;;;;;;2615529;54;20137;-64
2022/09/06 07:03:03;;;;;;;4.82;2.40;;;21.10;99.90;;;;;;2616022;54;20137;-64
2022/09/06 07:05:33;;;;;;;2.90;1.90;;;21.10;99.90;;;;;;2615377;47;20152;-64
2022/09/06 07:08:23;;;;;;;3.47;1.70;;;21.20;99.90;;;;;;2615673;54;20957;-64
2022/09/06 07:10:53;;;;;;;2.08;1.70;;;21.20;99.90;;;;;;2615643;54;20137;-64
2022/09/06 07:13:23;;;;;;;3.38;1.80;;;21.20;99.90;;;;;;2615667;54;20148;-64
2022/09/06 07:15:52;;;;;;;4.10;1.77;;;21.30;99.90;;;;;;2616008;54;20144;-64
2022/09/06 07:18:25;;;;;;;4.13;2.20;;;21.30;99.90;;;;;;2616112;47;20247;-64
2022/09/06 07:20:58;;;;;;;1.88;1.70;;;21.30;99.90;;;;;;2617333;54;20950;-64
2022/09/06 07:23:48;;;;;;;2.65;1.80;;;21.30;99.90;;;;;;2616491;47;20129;-64
2022/09/06 07:26:33;;;;;;;3.83;1.50;;;21.30;99.90;;;;;;2617704;47;20747;-64
2022/09/06 07:29:06;;;;;;;2.47;1.60;;;21.30;99.90;;;;;;2617179;54;20168;-64
2022/09/06 07:31:37;;;;;;;6.93;1.88;;;21.40;99.90;;;;;;2616178;47;20137;-66
2022/09/06 07:34:29;;;;;;;4.63;2.00;;;21.40;99.90;;;;;;2620529;54;20672;-64
2022/09/06 07:36:59;;;;;;;3.72;1.85;;;21.50;99.90;;;;;;2618705;39;20562;-64
2022/09/06 07:39:28;;;;;;;5.28;2.28;;;21.50;99.90;;;;;;2617060;46;20172;-64
2022/09/06 07:41:58;;;;;;;3.72;1.90;;;21.50;99.90;;;;;;2617183;47;20160;-63
2022/09/06 07:44:28;;;;;;;3.97;2.20;;;21.60;99.90;;;;;;2616042;47;20148;-63
2022/09/06 07:47:01;;;;;;;4.75;2.15;;;21.60;99.90;;;;;;2615795;47;20137;-64
2022/09/06 07:49:54;;;;;;;5.18;2.50;;;21.70;99.90;;;;;;2615824;47;20241;-64
2022/09/06 07:52:43;;;;;;;6.75;2.45;;;21.90;99.90;;;;;;2616040;54;20141;-64
2022/09/06 07:55:33;;;;;;;2.65;2.00;;;22.00;99.90;;;;;;2615520;47;20137;-64
2022/09/06 07:58:03;;;;;;;4.75;2.42;;;22.00;99.90;;;;;;2615770;39;20571;-65
2022/09/06 08:00:33;;;;;;;3.55;2.28;;;22.10;99.90;;;;;;2615567;54;20136;-64
2022/09/06 08:03:03;;;;;;;2.78;2.00;;;22.10;99.90;;;;;;2615802;54;20165;-64
2022/09/06 08:05:35;;;;;;;5.25;2.17;;;22.20;99.90;;;;;;2615042;47;20137;-64
2022/09/06 08:08:25;;;;;;;3.75;2.00;;;22.20;99.90;;;;;;2614087;54;20194;-64
2022/09/06 08:11:15;;;;;;;4.63;1.73;;;22.20;99.90;;;;;;2615266;47;20145;-64
2022/09/06 08:13:45;;;;;;;3.65;1.70;;;22.30;99.90;;;;;;2616347;39;20608;-64
2022/09/06 08:16:15;;;;;;;4.38;2.05;;;22.30;99.90;;;;;;2615382;47;20144;-64
2022/09/06 08:18:45;;;;;;;4.75;1.88;;;22.40;99.90;;;;;;2615671;54;20168;-64
2022/09/06 08:21:18;;;;;;;9.32;2.25;;;22.50;99.90;;;;;;2616460;39;20548;-64
2022/09/06 08:23:51;;;;;;;8.43;2.40;;;22.50;99.90;;;;;;2615343;54;20303;-64
2022/09/06 08:26:23;;;;;;;8.13;2.70;;;22.60;99.90;;;;;;2615385;54;20136;-64
2022/09/06 08:28:56;;;;;;;4.93;2.47;;;22.60;99.90;;;;;;2615219;54;20161;-68
2022/09/06 08:31:26;;;;;;;4.05;2.40;;;22.70;99.90;;;;;;2620211;46;20152;-64
2022/09/06 08:33:57;;;;;;;4.20;2.22;;;22.70;99.90;;;;;;2617535;47;20144;-65
2022/09/06 08:36:31;;;;;;;4.70;2.33;;;22.80;99.90;;;;;;2615433;47;20137;-65
2022/09/06 08:39:01;;;;;;;8.18;3.00;;;22.80;99.90;;;;;;2615181;54;20168;-65
2022/09/06 08:41:34;;;;;;;9.73;2.78;;;23.00;99.90;;;;;;2615613;47;20129;-65
2022/09/06 08:44:06;;;;;;;11.13;3.15;;;22.90;99.90;;;;;;2615873;54;20144;-65
2022/09/06 08:46:59;;;;;;;4.85;2.38;;;23.00;99.90;;;;;;2616522;47;20176;-66
2022/09/06 08:49:33;;;;;;;5.55;2.30;;;23.10;99.90;;;;;;2616240;54;20137;-65
2022/09/06 08:52:25;;;;;;;7.20;2.22;;;23.20;99.90;;;;;;2617607;54;20137;-65
2022/09/06 08:55:06;;;;;;;4.93;2.65;;;23.20;99.90;;;;;;2616301;47;20144;-65
2022/09/06 08:57:52;;;;;;;5.95;2.63;;;23.30;99.90;;;;;;2616728;54;20175;-64
2022/09/06 09:00:22;;;;;;;3.17;1.73;;;23.40;99.90;;;;;;2617579;54;20137;-65
2022/09/06 09:02:59;;;;;;;5.00;1.85;;;23.40;99.90;;;;;;2620126;54;20140;-70
2022/09/06 09:05:31;;;;;;;3.42;1.70;;;23.50;99.90;;;;;;2621317;54;20137;-65
2022/09/06 09:08:13;;;;;;;3.83;1.50;;;23.50;99.90;;;;;;2618678;54;20169;-65
2022/09/06 09:10:47;;;;;;;1.90;1.70;;;23.60;99.90;;;;;;2617119;54;20168;-64
2022/09/06 09:13:27;;;;;;;1.75;1.60;;;23.70;99.90;;;;;;2615515;54;20148;-64
2022/09/06 09:15:57;;;;;;;2.40;1.75;;;23.70;99.90;;;;;;2615548;54;20152;-64
2022/09/06 09:18:30;;;;;;;2.25;1.88;;;23.80;99.90;;;;;;2615209;47;20172;-64
2022/09/06 09:21:01;;;;;;;3.85;2.05;;;23.80;99.90;;;;;;2615570;39;20553;-64
2022/09/06 09:23:33;;;;;;;3.80;1.90;;;24.00;99.90;;;;;;2615364;54;20137;-64
2022/09/06 09:26:06;;;;;;;2.53;1.80;;;24.00;99.90;;;;;;2615151;54;20693;-66
2022/09/06 09:28:37;;;;;;;4.00;1.80;;;24.10;99.90;;;;;;2614536;54;20169;-64
2022/09/06 09:31:08;;;;;;;2.58;1.85;;;24.20;99.90;;;;;;2615077;54;20149;-65
2022/09/06 09:33:39;;;;;;;3.10;1.73;;;24.30;99.90;;;;;;2615246;47;20161;-65
2022/09/06 09:36:14;;;;;;;3.78;1.83;;;24.40;99.90;;;;;;2615255;54;20137;-65
2022/09/06 09:38:50;;;;;;;3.80;1.75;;;24.50;99.90;;;;;;2615069;54;20168;-65
2022/09/06 09:41:29;;;;;;;3.75;2.22;;;24.60;99.90;;;;;;2614730;54;20133;-65
2022/09/06 09:44:01;;;;;;;1.80;1.70;;;24.50;99.90;;;;;;2615477;47;20136;-65
2022/09/06 09:46:35;;;;;;;5.55;2.20;;;24.50;99.90;;;;;;2615026;54;20830;-65
2022/09/06 09:49:09;;;;;;;2.30;1.80;;;24.60;99.90;;;;;;2615513;47;20171;-65
2022/09/06 09:51:41;;;;;;;2.67;1.90;;;24.80;99.90;;;;;;2617570;50;20128;-66
2022/09/06 09:54:15;;;;;;;3.00;1.75;;;24.90;99.90;;;;;;2615901;54;20148;-65
2022/09/06 09:56:50;;;;;;;5.38;1.90;;;24.90;99.90;;;;;;2616216;54;20743;-65
2022/09/06 09:59:24;;;;;;;5.97;1.70;;;25.10;99.90;;;;;;2615615;47;20175;-66
2022/09/06 10:01:58;;;;;;;2.13;1.67;;;25.30;99.90;;;;;;2616130;47;20136;-65
2022/09/06 10:04:33;;;;;;;3.88;1.90;;;25.70;99.90;;;;;;2616298;54;20332;-65
2022/09/06 10:07:12;;;;;;;4.18;1.73;;;25.50;99.90;;;;;;2613523;46;20148;-65
2022/09/06 10:09:47;;;;;;;3.90;2.05;;;25.50;99.90;;;;;;2614541;54;20137;-64
2022/09/06 10:12:19;;;;;;;4.35;1.77;;;25.60;99.90;;;;;;2614416;54;20766;-66
2022/09/06 10:14:50;;;;;;;3.33;1.80;;;25.70;99.90;;;;;;2613510;54;20148;-65
2022/09/06 10:17:25;;;;;;;4.32;1.80;;;25.80;99.90;;;;;;2615381;54;20137;-64
2022/09/06 10:19:55;;;;;;;2.15;1.80;;;26.00;99.90;;;;;;2613634;54;20144;-64
2022/09/06 10:22:29;;;;;;;3.28;1.92;;;25.50;99.90;;;;;;2617002;47;20149;-64
2022/09/06 10:25:27;;;;;;;3.28;1.92;;;26.20;99.90;;;;;;2614410;54;20129;-65
2022/09/06 10:28:21;;;;;;;3.22;1.63;;;26.20;99.90;;;;;;2614921;54;20160;-66
2022/09/06 10:31:23;;;;;;;1.95;1.63;;;26.40;99.90;;;;;;2615000;54;20141;-68
2022/09/06 10:34:18;;;;;;;1.95;1.80;;;26.50;99.90;;;;;;2614517;54;20129;-65
2022/09/06 10:36:54;;;;;;;4.85;1.80;;;26.60;99.90;;;;;;2615159;54;20137;-64
2022/09/06 10:39:36;;;;;;;3.05;1.70;;;26.70;99.90;;;;;;2615014;54;20168;-63
2022/09/06 10:42:20;;;;;;;2.47;1.60;;;26.80;99.90;;;;;;2612856;54;20137;-64
2022/09/06 10:45:01;;;;;;;2.85;1.70;;;26.90;99.90;;;;;;2612866;54;20137;-62
2022/09/06 10:47:38;;;;;;;2.90;1.60;;;27.00;99.90;;;;;;2613833;54;20180;-62
2022/09/06 10:50:09;;;;;;;3.08;1.83;;;27.10;99.90;;;;;;2615501;54;20143;-64
2022/09/06 10:52:43;;;;;;;7.78;2.10;;;27.20;99.90;;;;;;2617325;46;20145;-63
2022/09/06 10:55:18;;;;;;;2.10;1.83;;;27.30;99.90;;;;;;2618107;54;20135;-61
2022/09/06 10:57:55;;;;;;;4.50;1.73;;;27.40;99.90;;;;;;2617211;54;20167;-63
2022/09/06 11:00:48;;;;;;;2.83;1.92;;;27.30;99.90;;;;;;2616384;54;20149;-62
2022/09/06 11:03:25;;;;;;;2.30;1.83;;;27.20;99.90;;;;;;2615239;54;20723;-64
2022/09/06 11:06:16;;;;;;;2.05;1.60;;;27.40;99.90;;;;;;2614705;54;20137;-62
2022/09/06 11:08:55;;;;;;;2.08;1.63;;;27.50;99.90;;;;;;2614664;54;20199;-63
2022/09/06 11:11:34;;;;;;;3.72;1.83;;;27.60;99.90;;;;;;2616122;54;20274;-65
2022/09/06 11:14:14;;;;;;;3.40;1.52;;;27.70;99.90;;;;;;2616256;46;20339;-64
2022/09/06 11:16:49;;;;;;;7.32;2.10;;;27.80;99.90;;;;;;2616781;54;20707;-66
2022/09/06 11:19:23;;;;;;;2.17;1.50;;;27.70;99.90;;;;;;2615410;47;20184;-67
2022/09/06 11:22:13;;;;;;;3.50;1.65;;;27.80;99.90;;;;;;2616626;47;20141;-68
2022/09/06 11:24:59;;;;;;;3.80;1.73;;;28.00;99.90;;;;;;2615179;54;20145;-68
2022/09/06 11:27:36;;;;;;;4.38;1.58;;;28.20;99.90;;;;;;2615592;54;20164;-69
2022/09/06 11:30:16;;;;;;;2.47;1.70;;;28.40;99.90;;;;;;2615855;54;20143;-69
2022/09/06 11:32:50;;;;;;;3.25;1.60;;;28.50;99.90;;;;;;2615056;54;20148;-69
2022/09/06 11:35:25;;;;;;;3.28;1.73;;;28.60;99.90;;;;;;2615779;46;20157;-69
2022/09/06 11:38:02;;;;;;;3.05;1.60;;;28.80;99.90;;;;;;2614968;54;20712;-68
2022/09/06 11:40:40;;;;;;;2.90;1.83;;;29.00;99.90;;;;;;2615357;54;20136;-68
2022/09/06 11:43:16;;;;;;;3.17;1.70;;;29.20;99.90;;;;;;2615538;54;20168;-67
2022/09/06 11:45:51;;;;;;;4.20;1.63;;;29.20;99.90;;;;;;2616066;39;20543;-67
2022/09/06 11:48:58;;;;;;;3.50;1.77;;;29.30;99.90;;;;;;2615082;47;20711;-66
2022/09/06 11:51:37;;;;;;;4.13;1.90;;;29.40;99.90;;;;;;2615398;47;20148;-68
2022/09/06 11:54:25;;;;;;;2.03;1.40;;;29.50;99.90;;;;;;2615076;54;20135;-69
2022/09/06 11:57:00;;;;;;;3.35;1.50;;;29.70;99.90;;;;;;2614947;54;20232;-67
2022/09/06 11:59:38;;;;;;;4.30;1.67;;;29.80;99.90;;;;;;2615094;54;20171;-70
2022/09/06 12:02:33;;;;;;;1.73;1.48;;;30.00;99.90;;;;;;2614853;54;20137;-66
2022/09/06 12:05:24;;;;;;;3.55;1.40;;;29.90;99.90;;;;;;2615137;39;20609;-66
2022/09/06 12:08:24;;;;;;;2.85;1.83;;;29.90;99.90;;;;;;2616193;39;20579;-66
2022/09/06 12:11:05;;;;;;;1.98;1.50;;;30.10;99.90;;;;;;2615726;54;20152;-65
2022/09/06 12:13:48;;;;;;;2.45;1.67;;;30.20;99.90;;;;;;2616684;47;20226;-65
2022/09/06 12:16:19;;;;;;;2.83;1.60;;;30.30;99.90;;;;;;2616587;54;20152;-64
2022/09/06 12:19:03;;;;;;;2.65;1.52;;;30.40;99.90;;;;;;2617527;54;20733;-65
2022/09/06 12:21:51;;;;;;;2.63;1.50;;;30.40;99.90;;;;;;2618770;54;20136;-64
2022/09/06 12:24:51;;;;;;;2.78;1.60;;;30.50;99.90;;;;;;2612243;47;20137;-67
2022/09/06 12:27:21;;;;;;;2.97;1.15;;;30.60;99.90;;;;;;2614550;39;20545;-65
2022/09/06 12:29:58;;;;;;;2.75;1.42;;;30.50;99.90;;;;;;2615172;54;20156;-66
2022/09/06 12:32:30;;;;;;;3.95;1.55;;;30.60;99.90;;;;;;2614679;31;20634;-67
2022/09/06 12:35:15;;;;;;;19.67;3.20;;;30.70;99.90;;;;;;2617359;54;20227;-63
2022/09/06 12:38:07;;;;;;;6.47;2.22;;;30.80;99.90;;;;;;2618049;54;20159;-65
2022/09/06 12:40:42;;;;;;;5.72;2.33;;;30.90;99.90;;;;;;2617385;47;20200;-68
2022/09/06 12:43:15;;;;;;;3.35;1.80;;;30.80;99.90;;;;;;2617602;54;20714;-66
2022/09/06 12:45:46;;;;;;;2.50;1.70;;;30.90;99.90;;;;;;2616663;39;20815;-66
2022/09/06 12:48:28;;;;;;;4.63;1.90;;;30.90;99.90;;;;;;2613638;54;20451;-66
2022/09/06 12:51:12;;;;;;;3.03;1.83;;;31.00;99.90;;;;;;2615590;54;20171;-66
2022/09/06 12:53:42;;;;;;;1.75;1.30;;;30.90;99.90;;;;;;2612983;39;20851;-63
2022/09/06 12:56:13;;;;;;;3.70;1.63;;;31.00;99.90;;;;;;2611121;54;20920;-64
2022/09/06 12:58:43;;;;;;;2.20;1.90;;;31.00;99.90;;;;;;2613040;47;20183;-62
2022/09/06 13:01:21;;;;;;;6.07;1.65;;;31.00;99.90;;;;;;2614068;54;20144;-61
2022/09/06 13:03:59;;;;;;;3.50;1.50;;;30.90;99.90;;;;;;2612701;47;20196;-64
2022/09/06 13:06:35;;;;;;;2.28;1.52;;;30.90;99.90;;;;;;2614803;54;20175;-64
2022/09/06 13:09:06;;;;;;;24.90;3.83;;;31.00;99.90;;;;;;2613257;47;20182;-63
2022/09/06 13:11:38;;;;;;;4.20;1.85;;;31.10;99.90;;;;;;2613875;54;20179;-65
2022/09/06 13:14:13;;;;;;;1.70;1.50;;;31.20;99.90;;;;;;2614148;54;20148;-66
2022/09/06 13:16:47;;;;;;;3.15;1.27;;;31.30;99.90;;;;;;2614191;54;20163;-67
2022/09/06 13:19:19;;;;;;;1.50;1.40;;;31.20;99.90;;;;;;2613504;47;20175;-67
2022/09/06 13:21:51;;;;;;;2.45;1.60;;;31.10;99.90;;;;;;2614584;47;20685;-65
2022/09/06 13:24:24;;;;;;;2.00;1.33;;;31.20;99.90;;;;;;2613327;54;20184;-64
2022/09/06 13:26:55;;;;;;;3.55;1.63;;;31.30;99.90;;;;;;2611729;54;20144;-67
2022/09/06 13:29:30;;;;;;;3.17;1.42;;;31.40;99.90;;;;;;2614469;54;20167;-65
2022/09/06 13:32:04;;;;;;;2.97;1.52;;;31.50;99.90;;;;;;2612116;54;20144;-66
2022/09/06 13:34:35;;;;;;;4.75;1.65;;;31.50;99.90;;;;;;2613323;54;20136;-66
2022/09/06 13:37:11;;;;;;;2.08;1.48;;;31.60;99.90;;;;;;2614380;54;20152;-65
2022/09/06 13:39:43;;;;;;;3.05;1.38;;;31.70;99.90;;;;;;2615001;54;20680;-66
2022/09/06 13:42:27;;;;;;;4.05;1.40;;;31.70;99.90;;;;;;2614852;47;20152;-64
2022/09/06 13:44:57;;;;;;;3.83;1.58;;;31.60;99.90;;;;;;2613434;54;20442;-62
2022/09/06 13:47:31;;;;;;;3.30;1.65;;;31.40;99.90;;;;;;2614137;54;20207;-66
2022/09/06 13:50:01;;;;;;;3.08;1.70;;;31.50;99.90;;;;;;2613345;54;20136;-63
2022/09/06 13:52:33;;;;;;;5.53;1.65;;;31.50;99.90;;;;;;2614525;54;20145;-63
2022/09/06 13:55:03;;;;;;;3.42;1.48;;;31.60;99.90;;;;;;2613915;54;20129;-64
2022/09/06 13:57:32;;;;;;;4.32;1.67;;;31.70;99.90;;;;;;2614302;54;20263;-64
2022/09/06 14:00:02;;;;;;;2.90;1.67;;;31.70;99.90;;;;;;2613633;47;20136;-63
2022/09/06 14:02:32;;;;;;;4.38;1.55;;;31.50;99.90;;;;;;2613850;54;20143;-64
2022/09/06 14:05:02;;;;;;;3.50;1.45;;;31.50;99.90;;;;;;2614692;54;20136;-64
2022/09/06 14:07:35;;;;;;;3.08;1.60;;;31.50;99.90;;;;;;2614517;54;20174;-65
2022/09/06 14:10:05;;;;;;;3.47;1.60;;;31.50;99.90;;;;;;2611709;47;20145;-64
2022/09/06 14:12:35;;;;;;;1.83;1.50;;;31.50;99.90;;;;;;2614441;54;20137;-65
2022/09/06 14:15:05;;;;;;;4.40;1.70;;;31.40;99.90;;;;;;2613697;54;20151;-66
2022/09/06 14:17:35;;;;;;;2.63;1.50;;;31.40;99.90;;;;;;2614102;54;20168;-65
2022/09/06 14:20:05;;;;;;;5.65;1.77;;;31.30;99.90;;;;;;2611529;54;20151;-67
2022/09/06 14:22:38;;;;;;;2.78;1.60;;;31.30;99.90;;;;;;2615455;54;20152;-67
2022/09/06 14:25:08;;;;;;;3.47;1.55;;;31.40;99.90;;;;;;2613923;47;20148;-65
2022/09/06 14:27:38;;;;;;;6.07;1.98;;;31.60;99.90;;;;;;2615000;47;20176;-66
2022/09/06 14:30:09;;;;;;;3.17;1.60;;;31.70;99.90;;;;;;2614173;47;20137;-63
2022/09/06 14:32:39;;;;;;;2.85;1.60;;;31.90;99.90;;;;;;2613978;47;20136;-67
2022/09/06 14:35:09;;;;;;;2.78;1.67;;;31.90;99.90;;;;;;2614361;54;20156;-63
2022/09/06 14:37:42;;;;;;;5.70;1.67;;;32.10;99.90;;;;;;2614125;54;20176;-62
2022/09/06 14:40:12;;;;;;;4.35;1.70;;;32.10;99.90;;;;;;2614990;54;20145;-65
2022/09/06 14:42:41;;;;;;;5.80;1.50;;;32.10;99.90;;;;;;2613327;54;20137;-65
2022/09/06 14:45:14;;;;;;;6.07;2.10;;;32.10;99.90;;;;;;2615098;47;20156;-62
2022/09/06 14:47:43;;;;;;;4.53;1.65;;;32.20;99.90;;;;;;2612714;47;20168;-63
2022/09/06 14:50:13;;;;;;;5.75;1.60;;;32.20;99.90;;;;;;2615188;54;20145;-63
2022/09/06 14:52:45;;;;;;;5.45;1.50;;;32.20;99.90;;;;;;2612318;47;20143;-64
2022/09/06 14:55:16;;;;;;;2.53;1.60;;;32.20;99.90;;;;;;2614502;54;20152;-61
2022/09/06 14:57:45;;;;;;;5.15;1.80;;;32.10;99.90;;;;;;2617891;54;20167;-63
2022/09/06 15:00:16;;;;;;;3.95;1.40;;;31.90;99.90;;;;;;2617082;54;20144;-62
2022/09/06 15:02:46;;;;;;;2.95;1.80;;;31.60;99.90;;;;;;2617999;39;20564;-62
2022/09/06 15:05:16;;;;;;;2.63;1.52;;;31.40;99.90;;;;;;2617837;54;20136;-63
2022/09/06 15:07:48;;;;;;;2.38;1.20;;;31.10;99.90;;;;;;2617323;54;20183;-62
2022/09/06 15:10:19;;;;;;;3.53;1.35;;;30.70;99.90;;;;;;2617464;54;20141;-62
2022/09/06 15:12:49;;;;;;;3.53;1.30;;;30.50;99.90;;;;;;2617115;54;20169;-63
2022/09/06 15:15:19;;;;;;;3.80;1.33;;;30.30;99.90;;;;;;2618551;54;20143;-60
2022/09/06 15:17:49;;;;;;;3.40;1.17;;;30.10;99.90;;;;;;2618039;54;20160;-61
2022/09/06 15:20:19;;;;;;;2.08;1.10;;;29.90;99.90;;;;;;2619808;39;20480;-63
2022/09/06 15:22:53;;;;;;;1.02;0.70;;;29.60;99.90;;;;;;2618045;54;20143;-62
2022/09/06 15:25:47;;;;;;;2.60;0.93;;;29.40;99.90;;;;;;2617932;47;20657;-61
2022/09/06 15:28:18;;;;;;;2.22;1.00;;;29.20;99.90;;;;;;2617635;47;20159;-63
2022/09/06 15:30:48;;;;;;;2.70;1.20;;;29.00;99.90;;;;;;2618004;54;20155;-63
2022/09/06 15:33:18;;;;;;;3.05;1.17;;;28.80;99.90;;;;;;2617006;46;20144;-62
2022/09/06 15:35:55;;;;;;;3.22;1.15;;;28.70;99.90;;;;;;2616554;54;20137;-61
2022/09/06 15:38:28;;;;;;;5.22;1.00;;;28.60;99.90;;;;;;2616277;47;20167;-63
2022/09/06 15:41:06;;;;;;;4.00;1.20;;;28.40;99.90;;;;;;2614588;54;20144;-62
2022/09/06 15:43:39;;;;;;;2.40;1.30;;;28.30;99.90;;;;;;2615868;47;20764;-63
2022/09/06 15:46:09;;;;;;;5.50;1.30;;;28.10;99.90;;;;;;2615790;54;20152;-64
2022/09/06 15:48:43;;;;;;;3.75;1.10;;;28.00;99.90;;;;;;2615087;54;20165;-62
2022/09/06 15:51:15;;;;;;;8.15;1.10;;;27.90;99.90;;;;;;2616513;54;20144;-62
2022/09/06 15:53:48;;;;;;;2.45;1.13;;;27.80;99.90;;;;;;2616331;54;21148;-64
2022/09/06 15:56:19;;;;;;;3.20;1.20;;;27.60;99.90;;;;;;2615841;39;20569;-63
2022/09/06 15:58:49;;;;;;;1.80;1.30;;;27.50;99.90;;;;;;2616047;39;20588;-63
2022/09/06 16:01:21;;;;;;;6.10;1.60;;;27.40;99.90;;;;;;2614759;39;20372;-62
2022/09/06 16:03:53;;;;;;;5.25;1.55;;;27.20;99.90;;;;;;2616351;39;20578;-61
2022/09/06 16:06:24;;;;;;;3.38;1.52;;;27.10;99.90;;;;;;2616264;54;20144;-62
2022/09/06 16:09:02;;;;;;;2.80;1.65;;;27.00;99.90;;;;;;2616379;54;20168;-62
2022/09/06 16:11:35;;;;;;;1.88;1.33;;;26.80;99.90;;;;;;2616462;54;20144;-62
2022/09/06 16:14:06;;;;;;;3.78;1.70;;;26.70;99.90;;;;;;2616179;54;20172;-60
2022/09/06 16:16:38;;;;;;;3.75;1.50;;;26.70;99.90;;;;;;2615817;47;20137;-63
2022/09/06 16:19:09;;;;;;;4.07;1.42;;;26.60;99.90;;;;;;2615970;54;20187;-61
2022/09/06 16:21:41;;;;;;;3.30;1.40;;;26.50;99.90;;;;;;2616350;54;20151;-63
2022/09/06 16:24:15;;;;;;;3.50;2.20;;;26.40;99.90;;;;;;2616507;54;20286;-61
2022/09/06 16:26:47;;;;;;;2.67;1.65;;;26.30;99.90;;;;;;2616725;47;20144;-61
2022/09/06 16:29:19;;;;;;;3.55;1.67;;;26.20;99.90;;;;;;2617108;39;20837;-64
2022/09/06 16:31:49;;;;;;;2.65;1.60;;;26.20;99.90;;;;;;2616144;47;20168;-63
2022/09/06 16:34:19;;;;;;;2.85;1.65;;;26.20;99.90;;;;;;2617073;54;20144;-61
2022/09/06 16:36:49;;;;;;;1.90;1.33;;;26.20;99.90;;;;;;2616619;54;20145;-64
2022/09/06 16:39:21;;;;;;;3.80;1.70;;;26.20;99.90;;;;;;2615952;54;20167;-63
2022/09/06 16:41:51;;;;;;;3.53;1.50;;;26.20;99.90;;;;;;2616309;54;20151;-63
2022/09/06 16:44:20;;;;;;;3.28;1.95;;;26.20;99.90;;;;;;2617072;39;20552;-62
2022/09/06 16:46:52;;;;;;;3.08;1.65;;;26.20;99.90;;;;;;2616578;54;20137;-61
2022/09/06 16:49:22;;;;;;;4.50;1.38;;;26.10;99.90;;;;;;2617016;54;20176;-63
2022/09/06 16:51:52;;;;;;;3.00;1.60;;;26.10;99.90;;;;;;2617039;46;20152;-63
2022/09/06 16:54:24;;;;;;;3.42;1.42;;;26.00;99.90;;;;;;2617109;54;20129;-63
2022/09/06 16:56:54;;;;;;;2.97;1.42;;;25.90;99.90;;;;;;2617125;47;20136;-63
2022/09/06 16:59:24;;;;;;;7.50;2.40;;;25.80;99.90;;;;;;2617068;54;20168;-63
2022/09/06 17:01:54;;;;;;;10.95;2.83;;;25.70;99.90;;;;;;2617123;39;20543;-62
2022/09/06 17:04:24;;;;;;;9.90;3.17;;;25.40;99.90;;;;;;2617108;54;20136;-63
2022/09/06 17:06:54;;;;;;;11.13;3.13;;;25.20;99.90;;;;;;2617443;54;20157;-63
2022/09/06 17:09:26;;;;;;;7.68;3.03;;;24.80;99.90;;;;;;2617447;39;20606;-62
2022/09/06 17:11:56;;;;;;;15.20;4.90;;;24.40;99.90;;;;;;2616172;54;20145;-61
2022/09/06 17:14:26;;;;;;;10.00;4.20;;;24.00;99.90;;;;;;2617211;47;20151;-63
2022/09/06 17:17:05;;;;;;;10.80;3.55;;;23.90;99.90;;;;;;2616520;54;20145;-61
2022/09/06 17:19:39;;;;;;;7.85;3.10;;;23.60;99.90;;;;;;2616465;54;20145;-62
2022/09/06 17:22:09;;;;;;;9.02;3.20;;;23.40;99.90;;;;;;2614369;54;20232;-61
2022/09/06 17:24:41;;;;;;;10.85;2.97;;;23.30;99.90;;;;;;2615012;54;20145;-61
2022/09/06 17:27:12;;;;;;;6.15;3.00;;;23.20;99.90;;;;;;2614748;54;20136;-62
2022/09/06 17:29:41;;;;;;;9.50;3.22;;;23.10;99.90;;;;;;2615467;54;20137;-62
2022/09/06 17:32:11;;;;;;;6.40;3.15;;;23.00;99.90;;;;;;2614648;47;20136;-60